createdAt,value
2018-04-12T00:00:16.155Z,98707.41
2018-04-12T00:02:43.623Z,98706.97
2018-04-12T00:05:11.103Z,98696.66
2018-04-12T00:07:38.580Z,98696.27
2018-04-12T00:10:06.077Z,98695.81
2018-04-12T00:12:33.725Z,98686.81
2018-04-12T00:15:01.447Z,98686.86
2018-04-12T00:17:28.841Z,98685.16
2018-04-12T00:19:56.238Z,98682.14
2018-04-12T00:22:23.619Z,98675.28
2018-04-12T00:24:51.008Z,98670.59
2018-04-12T00:27:18.540Z,98666.31
2018-04-12T00:29:46.104Z,98666.30
2018-04-12T00:32:13.703Z,98663.77
2018-04-12T00:34:41.192Z,98652.19
2018-04-12T00:37:09.620Z,98644.92
2018-04-12T00:39:37.105Z,98650.88
2018-04-12T00:42:04.625Z,98650.88
2018-04-12T00:44:32.059Z,98652.66
2018-04-12T00:46:59.443Z,98643.23
2018-04-12T00:49:26.898Z,98645.34
2018-04-12T00:51:54.225Z,98635.47
2018-04-12T00:54:21.660Z,98639.79
2018-04-12T00:56:49.168Z,98637.67
2018-04-12T00:59:16.494Z,98632.11
2018-04-12T01:01:43.989Z,98631.66
2018-04-12T01:04:11.390Z,98627.34
2018-04-12T01:06:38.798Z,98625.23
2018-04-12T01:09:06.236Z,98622.25
2018-04-12T01:11:33.739Z,98624.35
2018-04-12T01:14:01.180Z,98618.35
2018-04-12T01:16:28.574Z,98615.75
2018-04-12T01:18:55.960Z,98614.92
2018-04-12T01:21:23.343Z,98611.95
2018-04-12T01:23:50.733Z,98613.69
2018-04-12T01:26:18.209Z,98607.23
2018-04-12T01:28:45.631Z,98608.11
2018-04-12T01:31:13.027Z,98603.84
2018-04-12T01:33:40.444Z,98603.39
2018-04-12T01:36:07.840Z,98601.25
2018-04-12T01:38:35.220Z,98599.59
2018-04-12T01:41:02.653Z,98589.75
2018-04-12T01:43:30.067Z,98590.59
2018-04-12T01:45:57.470Z,98580.75
2018-04-12T01:48:24.891Z,98570.92
2018-04-12T01:50:52.275Z,98576.48
2018-04-12T01:53:19.731Z,98565.36
2018-04-12T01:55:47.110Z,98563.21
2018-04-12T01:58:14.512Z,98558.54
2018-04-12T02:00:41.913Z,98555.13
2018-04-12T02:03:09.312Z,98551.66
2018-04-12T02:05:36.705Z,98558.98
2018-04-12T02:08:04.133Z,98547.00
2018-04-12T02:10:31.540Z,98551.28
2018-04-12T02:12:59.100Z,98544.87
2018-04-12T02:15:26.496Z,98544.84
2018-04-12T02:17:53.900Z,98543.58
2018-04-12T02:20:21.306Z,98550.42
2018-04-12T02:22:48.705Z,98541.84
2018-04-12T02:25:16.169Z,98546.13
2018-04-12T02:27:43.531Z,98552.11
2018-04-12T02:30:10.914Z,98546.55
2018-04-12T02:32:38.320Z,98542.27
2018-04-12T02:35:05.746Z,98544.38
2018-04-12T02:37:33.185Z,98542.23
2018-04-12T02:40:00.938Z,98544.84
2018-04-12T02:42:28.634Z,98539.72
2018-04-12T02:44:56.194Z,98538.84
2018-04-12T02:47:23.622Z,98534.17
2018-04-12T02:49:51.016Z,98535.47
2018-04-12T02:52:18.394Z,98531.59
2018-04-12T02:54:45.870Z,98536.27
2018-04-12T02:57:13.245Z,98533.27
2018-04-12T02:59:40.711Z,98532.89
2018-04-12T03:02:08.127Z,98531.16
2018-04-12T03:04:35.615Z,98531.13
2018-04-12T03:07:03.179Z,98518.75
2018-04-12T03:09:30.566Z,98521.23
2018-04-12T03:11:58.013Z,98516.17
2018-04-12T03:14:25.399Z,98512.80
2018-04-12T03:16:52.801Z,98515.34
2018-04-12T03:19:20.200Z,98504.67
2018-04-12T03:21:47.589Z,98496.92
2018-04-12T03:24:14.991Z,98496.09
2018-04-12T03:26:42.479Z,98490.97
2018-04-12T03:29:09.878Z,98487.48
2018-04-12T03:31:37.267Z,98492.26
2018-04-12T03:34:04.667Z,98487.52
2018-04-12T03:36:32.052Z,98488.39
2018-04-12T03:39:00.483Z,98481.16
2018-04-12T03:41:27.889Z,98483.27
2018-04-12T03:43:55.281Z,98486.28
2018-04-12T03:46:22.662Z,98477.30
2018-04-12T03:48:50.049Z,98479.41
2018-04-12T03:51:17.442Z,98484.52
2018-04-12T03:53:44.830Z,98478.11
2018-04-12T03:56:12.239Z,98471.69
2018-04-12T03:58:39.731Z,98471.27
2018-04-12T04:01:07.161Z,98458.02
2018-04-12T04:03:34.527Z,98455.91
2018-04-12T04:06:01.998Z,98452.92
2018-04-12T04:08:29.385Z,98449.52
2018-04-12T04:10:56.780Z,98446.52
2018-04-12T04:13:24.194Z,98445.67
2018-04-12T04:16:03.207Z,98450.33
2018-04-12T04:18:42.430Z,98442.68
2018-04-12T04:21:09.888Z,98439.28
2018-04-12T04:23:37.268Z,98437.13
2018-04-12T04:26:04.661Z,98430.30
2018-04-12T04:28:32.033Z,98420.48
2018-04-12T04:30:59.422Z,98427.32
2018-04-12T04:33:26.807Z,98428.19
2018-04-12T04:35:54.213Z,98429.83
2018-04-12T04:38:21.616Z,98437.08
2018-04-12T04:40:49.017Z,98452.06
2018-04-12T04:43:16.425Z,98454.63
2018-04-12T04:45:43.915Z,98456.34
2018-04-12T04:48:11.311Z,98466.97
2018-04-12T04:50:38.692Z,98466.59
2018-04-12T04:53:06.695Z,98472.13
2018-04-12T04:55:34.105Z,98463.61
2018-04-12T04:58:01.696Z,98459.72
2018-04-12T05:00:29.092Z,98458.88
2018-04-12T05:02:56.496Z,98454.66
2018-04-12T05:05:23.882Z,98459.73
2018-04-12T05:07:51.877Z,98463.13
2018-04-12T05:10:19.278Z,98461.44
2018-04-12T05:12:46.685Z,98456.79
2018-04-12T05:15:14.092Z,98461.50
2018-04-12T05:17:41.703Z,98464.05
2018-04-12T05:20:09.112Z,98465.28
2018-04-12T05:22:36.509Z,98470.39
2018-04-12T05:25:03.912Z,98465.67
2018-04-12T05:27:31.311Z,98462.75
2018-04-12T05:29:58.703Z,98471.69
2018-04-12T05:32:26.087Z,98478.53
2018-04-12T05:34:53.554Z,98482.41
2018-04-12T05:37:20.892Z,98486.67
2018-04-12T05:39:48.330Z,98485.75
2018-04-12T05:42:15.703Z,98482.72
2018-04-12T05:44:43.143Z,98483.56
2018-04-12T05:47:10.524Z,98474.16
2018-04-12T05:49:38.049Z,98475.83
2018-04-12T05:52:05.455Z,98470.77
2018-04-12T05:54:32.844Z,98470.73
2018-04-12T05:57:00.349Z,98473.68
2018-04-12T05:59:27.794Z,98465.11
2018-04-12T06:01:55.211Z,98462.98
2018-04-12T06:04:22.590Z,98459.49
2018-04-12T06:06:49.993Z,98467.23
2018-04-12T06:09:17.388Z,98474.04
2018-04-12T06:11:44.813Z,98466.84
2018-04-12T06:14:12.234Z,98456.60
2018-04-12T06:16:44.033Z,98466.00
2018-04-12T06:19:11.423Z,98464.69
2018-04-12T06:21:38.891Z,98459.09
2018-04-12T06:24:06.545Z,98462.56
2018-04-12T06:26:33.966Z,98459.11
2018-04-12T06:29:01.361Z,98452.63
2018-04-12T06:31:28.883Z,98451.38
2018-04-12T06:33:56.265Z,98446.61
2018-04-12T06:36:23.643Z,98444.50
2018-04-12T06:38:51.076Z,98437.23
2018-04-12T06:41:18.459Z,98439.37
2018-04-12T06:43:45.872Z,98442.27
2018-04-12T06:46:13.306Z,98444.80
2018-04-12T06:48:40.700Z,98450.39
2018-04-12T06:51:08.106Z,98449.94
2018-04-12T06:53:35.517Z,98440.38
2018-04-12T06:56:02.908Z,98438.47
2018-04-12T06:58:30.313Z,98428.30
2018-04-12T07:00:57.697Z,98432.63
2018-04-12T07:03:25.097Z,98429.55
2018-04-12T07:05:52.499Z,98436.27
2018-04-12T07:08:19.984Z,98439.31
2018-04-12T07:10:47.384Z,98437.95
2018-04-12T07:13:14.798Z,98438.77
2018-04-12T07:15:42.188Z,98438.71
2018-04-12T07:18:09.559Z,98436.16
2018-04-12T07:20:36.964Z,98440.05
2018-04-12T07:23:04.347Z,98442.12
2018-04-12T07:25:31.755Z,98430.91
2018-04-12T07:27:59.148Z,98440.40
2018-04-12T07:30:26.530Z,98446.72
2018-04-12T07:32:53.970Z,98442.66
2018-04-12T07:35:21.376Z,98433.50
2018-04-12T07:37:48.764Z,98416.50
2018-04-12T07:40:16.173Z,98412.06
2018-04-12T07:42:43.613Z,98413.67
2018-04-12T07:45:11.022Z,98415.64
2018-04-12T07:47:38.401Z,98411.26
2018-04-12T07:50:05.830Z,98410.40
2018-04-12T07:52:33.210Z,98407.80
2018-04-12T07:55:00.580Z,98411.97
2018-04-12T07:57:27.998Z,98410.33
2018-04-12T07:59:55.495Z,98413.75
2018-04-12T08:02:22.931Z,98414.42
2018-04-12T08:04:50.296Z,98415.31
2018-04-12T08:07:17.708Z,98408.39
2018-04-12T08:09:45.123Z,98418.95
2018-04-12T08:12:12.671Z,98414.66
2018-04-12T08:14:40.742Z,98405.53
2018-04-12T08:17:08.190Z,98392.55
2018-04-12T08:19:35.590Z,98388.68
2018-04-12T08:22:03.021Z,98393.23
2018-04-12T08:24:30.423Z,98388.74
2018-04-12T08:26:57.814Z,98386.08
2018-04-12T08:29:25.208Z,98394.47
2018-04-12T08:31:52.794Z,98385.78
2018-04-12T08:34:20.178Z,98387.72
2018-04-12T08:36:47.553Z,98396.28
2018-04-12T08:39:14.956Z,98396.16
2018-04-12T08:41:42.448Z,98395.61
2018-04-12T08:44:09.979Z,98396.88
2018-04-12T08:46:37.368Z,98398.71
2018-04-12T08:49:04.967Z,98404.58
2018-04-12T08:51:32.365Z,98402.46
2018-04-12T08:54:00.018Z,98403.19
2018-04-12T08:56:27.399Z,98404.81
2018-04-12T08:58:54.794Z,98403.38
2018-04-12T09:01:22.235Z,98414.92
2018-04-12T09:03:49.665Z,98418.34
2018-04-12T09:06:17.101Z,98423.50
2018-04-12T09:08:44.486Z,98430.69
2018-04-12T09:11:11.917Z,98430.92
2018-04-12T09:13:39.319Z,98431.80
2018-04-12T09:16:06.707Z,98442.78
2018-04-12T09:18:34.084Z,98440.34
2018-04-12T09:21:01.613Z,98445.81
2018-04-12T09:23:28.996Z,98452.56
2018-04-12T09:25:56.392Z,98459.41
2018-04-12T09:28:23.948Z,98460.24
2018-04-12T09:30:51.324Z,98463.88
2018-04-12T09:33:18.734Z,98475.14
2018-04-12T09:35:46.147Z,98485.69
2018-04-12T09:38:13.535Z,98481.39
2018-04-12T09:40:40.930Z,98489.67
2018-04-12T09:43:08.576Z,98491.75
2018-04-12T09:45:35.972Z,98486.15
2018-04-12T09:48:03.432Z,98481.55
2018-04-12T09:50:30.828Z,98478.43
2018-04-12T09:52:58.299Z,98487.24
2018-04-12T09:55:25.687Z,98482.45
2018-04-12T09:57:53.129Z,98486.86
2018-04-12T10:00:26.209Z,98475.41
2018-04-12T10:02:55.771Z,98477.59
2018-04-12T10:05:29.784Z,98482.67
2018-04-12T10:08:02.870Z,98509.28
2018-04-12T10:10:30.383Z,98512.55
2018-04-12T10:12:57.947Z,98518.19
2018-04-12T10:15:26.048Z,98522.09
2018-04-12T10:17:53.468Z,98534.25
2018-04-12T10:20:20.932Z,98538.79
2018-04-12T10:22:48.421Z,98541.59
2018-04-12T10:25:15.999Z,98534.69
2018-04-12T10:27:43.391Z,98534.96
2018-04-12T10:30:10.791Z,98534.52
2018-04-12T10:32:38.206Z,98523.97
2018-04-12T10:35:05.773Z,98522.84
2018-04-12T10:37:33.165Z,98521.52
2018-04-12T10:40:00.539Z,98524.20
2018-04-12T10:42:28.178Z,98532.99
2018-04-12T10:44:55.579Z,98543.67
2018-04-12T10:47:22.952Z,98541.55
2018-04-12T10:49:50.336Z,98534.31
2018-04-12T10:52:17.747Z,98534.70
2018-04-12T10:54:45.143Z,98524.41
2018-04-12T10:57:12.564Z,98522.17
2018-04-12T10:59:39.967Z,98519.58
2018-04-12T11:02:07.372Z,98521.33
2018-04-12T11:04:34.765Z,98528.13
2018-04-12T11:07:02.309Z,98537.66
2018-04-12T11:09:29.737Z,98532.69
2018-04-12T11:11:57.102Z,98528.58
2018-04-12T11:14:24.647Z,98534.04
2018-04-12T11:16:53.059Z,98539.62
2018-04-12T11:19:20.453Z,98541.89
2018-04-12T11:21:47.839Z,98535.86
2018-04-12T11:24:15.233Z,98541.25
2018-04-12T11:26:42.621Z,98549.14
2018-04-12T11:29:10.005Z,98542.86
2018-04-12T11:31:37.412Z,98536.00
2018-04-12T11:34:04.888Z,98531.74
2018-04-12T11:36:33.197Z,98536.91
2018-04-12T11:39:00.786Z,98528.95
2018-04-12T11:41:28.243Z,98536.74
2018-04-12T11:43:55.931Z,98527.80
2018-04-12T11:46:23.591Z,98530.22
2018-04-12T11:48:51.056Z,98525.87
2018-04-12T11:51:18.511Z,98511.80
2018-04-12T11:53:46.071Z,98525.22
2018-04-12T11:56:13.620Z,98529.05
2018-04-12T11:58:41.005Z,98522.58
2018-04-12T12:01:08.555Z,98515.42
2018-04-12T12:03:35.951Z,98515.56
2018-04-12T12:06:03.495Z,98515.80
2018-04-12T12:08:30.987Z,98514.46
2018-04-12T12:10:58.398Z,98525.83
2018-04-12T12:13:25.808Z,98532.69
2018-04-12T12:15:53.259Z,98540.09
2018-04-12T12:18:20.717Z,98537.91
2018-04-12T12:20:48.221Z,98535.56
2018-04-12T12:23:15.616Z,98532.10
2018-04-12T12:25:43.000Z,98533.50
2018-04-12T12:28:10.629Z,98530.81
2018-04-12T12:30:38.026Z,98534.88
2018-04-12T12:33:05.430Z,98540.81
2018-04-12T12:35:32.892Z,98542.11
2018-04-12T12:38:00.297Z,98552.52
2018-04-12T12:40:27.679Z,98549.60
2018-04-12T12:42:55.308Z,98566.73
2018-04-12T12:45:22.685Z,98574.70
2018-04-12T12:47:50.080Z,98564.97
2018-04-12T12:50:17.723Z,98571.32
2018-04-12T12:52:45.195Z,98584.83
2018-04-12T12:55:12.619Z,98574.81
2018-04-12T12:57:39.993Z,98580.60
2018-04-12T13:00:07.412Z,98572.42
2018-04-12T13:02:34.780Z,98584.89
2018-04-12T13:05:02.165Z,98594.70
2018-04-12T13:07:29.540Z,98594.61
2018-04-12T13:09:56.931Z,98593.98
2018-04-12T13:12:24.313Z,98596.36
2018-04-12T13:14:51.693Z,98602.56
2018-04-12T13:17:19.076Z,98601.50
2018-04-12T13:19:46.672Z,98616.25
2018-04-12T13:22:14.047Z,98601.69
2018-04-12T13:24:41.462Z,98613.53
2018-04-12T13:27:08.836Z,98609.98
2018-04-12T13:29:36.222Z,98606.37
2018-04-12T13:32:05.759Z,98604.31
2018-04-12T13:34:33.988Z,98605.58
2018-04-12T13:37:01.383Z,98612.13
2018-04-12T13:39:28.827Z,98620.84
2018-04-12T13:41:56.255Z,98610.12
2018-04-12T13:44:23.680Z,98612.53
2018-04-12T13:46:51.073Z,98615.02
2018-04-12T13:49:18.438Z,98601.82
2018-04-12T13:51:45.988Z,98605.80
2018-04-12T13:54:13.561Z,98603.89
2018-04-12T13:56:41.069Z,98611.50
2018-04-12T13:59:08.478Z,98613.09
2018-04-12T14:01:35.905Z,98616.00
2018-04-12T14:04:03.472Z,98624.01
2018-04-12T14:06:30.871Z,98612.95
2018-04-12T14:08:58.360Z,98609.61
2018-04-12T14:11:25.952Z,98611.92
2018-04-12T14:13:53.380Z,98609.80
2018-04-12T14:16:20.823Z,98601.14
2018-04-12T14:18:48.293Z,98606.33
2018-04-12T14:21:15.673Z,98611.61
2018-04-12T14:23:43.121Z,98609.38
2018-04-12T14:26:10.516Z,98615.84
2018-04-12T14:28:37.979Z,98609.09
2018-04-12T14:31:05.484Z,98614.34
2018-04-12T14:33:32.937Z,98607.20
2018-04-12T14:36:00.389Z,98610.00
2018-04-12T14:38:27.812Z,98606.77
2018-04-12T14:40:58.325Z,98602.05
2018-04-12T14:43:25.707Z,98601.04
2018-04-12T14:45:53.101Z,98605.20
2018-04-12T14:48:20.488Z,98601.47
2018-04-12T14:50:47.867Z,98606.58
2018-04-12T14:53:15.459Z,98597.27
2018-04-12T14:55:42.844Z,98596.38
2018-04-12T14:58:10.236Z,98597.53
2018-04-12T15:00:37.632Z,98601.02
2018-04-12T15:03:05.026Z,98594.66
2018-04-12T15:05:32.398Z,98595.22
2018-04-12T15:07:59.788Z,98597.39
2018-04-12T15:10:27.238Z,98596.20
2018-04-12T15:12:54.596Z,98596.73
2018-04-12T15:15:21.979Z,98597.05
2018-04-12T15:17:49.390Z,98596.94
2018-04-12T15:20:17.118Z,98584.80
2018-04-12T15:22:44.524Z,98582.00
2018-04-12T15:25:12.047Z,98586.83
2018-04-12T15:27:39.504Z,98584.56
2018-04-12T15:30:06.953Z,98592.13
2018-04-12T15:32:34.333Z,98589.84
2018-04-12T15:35:01.724Z,98591.86
2018-04-12T15:37:29.126Z,98591.13
2018-04-12T15:39:58.779Z,98594.28
2018-04-12T15:42:28.191Z,98594.61
2018-04-12T15:44:55.691Z,98603.17
2018-04-12T15:47:23.064Z,98602.38
2018-04-12T15:49:50.593Z,98603.48
2018-04-12T15:52:18.113Z,98597.67
2018-04-12T15:54:45.512Z,98598.78
2018-04-12T15:57:13.590Z,98605.58
2018-04-12T15:59:41.207Z,98599.58
2018-04-12T16:02:08.605Z,98604.22
2018-04-12T16:04:35.996Z,98603.27
2018-04-12T16:07:03.399Z,98607.45
2018-04-12T16:09:30.830Z,98608.71
2018-04-12T16:11:58.236Z,98612.33
2018-04-12T16:14:25.666Z,98608.39
2018-04-12T16:16:53.115Z,98605.92
2018-04-12T16:19:20.505Z,98610.34
2018-04-12T16:21:47.872Z,98602.92
2018-04-12T16:24:15.319Z,98602.45
2018-04-12T16:26:42.753Z,98603.80
2018-04-12T16:29:10.148Z,98600.98
2018-04-12T16:31:37.533Z,98596.38
2018-04-12T16:34:04.932Z,98587.25
2018-04-12T16:36:32.437Z,98580.10
2018-04-12T16:38:59.882Z,98582.90
2018-04-12T16:41:27.446Z,98586.88
2018-04-12T16:43:54.829Z,98590.75
2018-04-12T16:46:22.204Z,98592.37
2018-04-12T16:48:49.740Z,98594.27
2018-04-12T16:51:17.129Z,98596.80
2018-04-12T16:53:44.509Z,98601.58
2018-04-12T16:56:11.985Z,98601.66
2018-04-12T16:58:39.387Z,98608.26
2018-04-12T17:01:07.130Z,98600.46
2018-04-12T17:03:35.471Z,98605.89
2018-04-12T17:06:02.857Z,98610.55
2018-04-12T17:08:30.256Z,98615.65
2018-04-12T17:10:57.636Z,98618.12
2018-04-12T17:13:25.035Z,98618.52
2018-04-12T17:15:52.456Z,98616.08
2018-04-12T17:18:19.857Z,98620.92
2018-04-12T17:20:47.255Z,98611.59
2018-04-12T17:23:14.737Z,98608.55
2018-04-12T17:25:42.757Z,98608.06
2018-04-12T17:28:10.152Z,98617.45
2018-04-12T17:30:38.520Z,98609.97
2018-04-12T17:33:05.907Z,98611.88
2018-04-12T17:35:33.383Z,98610.54
2018-04-12T17:38:00.755Z,98615.84
2018-04-12T17:40:28.137Z,98619.56
2018-04-12T17:42:55.607Z,98623.94
2018-04-12T17:45:22.954Z,98628.00
2018-04-12T17:47:50.349Z,98631.15
2018-04-12T17:50:17.760Z,98635.08
2018-04-12T17:52:45.140Z,98634.77
2018-04-12T17:55:12.541Z,98626.01
2018-04-12T17:57:39.931Z,98637.20
2018-04-12T18:00:07.325Z,98634.27
2018-04-12T18:02:34.713Z,98640.41
2018-04-12T18:05:02.120Z,98637.84
2018-04-12T18:07:29.521Z,98642.56
2018-04-12T18:09:56.923Z,98645.34
2018-04-12T18:12:24.321Z,98651.06
2018-04-12T18:14:57.037Z,98642.81
2018-04-12T18:17:33.841Z,98651.51
2018-04-12T18:20:01.398Z,98654.89
2018-04-12T18:22:28.768Z,98649.02
2018-04-12T18:24:56.192Z,98647.55
2018-04-12T18:27:23.611Z,98650.05
2018-04-12T18:29:51.017Z,98647.46
2018-04-12T18:32:18.388Z,98653.03
2018-04-12T18:34:45.799Z,98651.04
2018-04-12T18:37:13.223Z,98659.70
2018-04-12T18:39:40.646Z,98656.33
2018-04-12T18:42:08.032Z,98661.90
2018-04-12T18:44:35.691Z,98662.02
2018-04-12T18:47:03.083Z,98663.59
2018-04-12T18:49:30.468Z,98666.34
2018-04-12T18:51:57.868Z,98663.58
2018-04-12T18:54:25.297Z,98666.50
2018-04-12T18:56:52.720Z,98671.59
2018-04-12T18:59:20.168Z,98678.55
2018-04-12T19:01:47.581Z,98686.49
2018-04-12T19:04:14.969Z,98688.23
2018-04-12T19:06:42.576Z,98682.69
2018-04-12T19:09:09.965Z,98682.77
2018-04-12T19:11:37.376Z,98679.66
2018-04-12T19:14:04.761Z,98683.59
2018-04-12T19:16:32.169Z,98688.77
2018-04-12T19:18:59.589Z,98692.57
2018-04-12T19:21:27.012Z,98699.88
2018-04-12T19:23:54.378Z,98708.46
2018-04-12T19:26:21.793Z,98708.86
2018-04-12T19:28:49.176Z,98711.48
2018-04-12T19:31:16.657Z,98717.01
2018-04-12T19:33:44.049Z,98712.20
2018-04-12T19:36:11.452Z,98709.32
2018-04-12T19:38:39.784Z,98712.05
2018-04-12T19:41:07.185Z,98711.02
2018-04-12T19:43:34.627Z,98713.17
2018-04-12T19:46:02.044Z,98710.57
2018-04-12T19:48:29.439Z,98719.41
2018-04-12T19:50:56.877Z,98716.24
2018-04-12T19:53:24.264Z,98715.14
2018-04-12T19:55:51.656Z,98706.63
2018-04-12T19:58:19.708Z,98706.52
2018-04-12T20:00:47.098Z,98704.25
2018-04-12T20:16:19.779Z,98698.23
2018-04-12T20:18:47.268Z,98700.76
2018-04-12T20:21:14.671Z,98692.25
2018-04-12T20:23:42.254Z,98693.19
2018-04-12T20:26:09.686Z,98695.89
2018-04-12T20:28:37.082Z,98696.00
2018-04-12T20:31:04.500Z,98694.33
2018-04-12T20:33:31.961Z,98696.83
2018-04-12T20:35:59.375Z,98702.74
2018-04-12T20:38:26.777Z,98703.18
2018-04-12T20:40:54.161Z,98705.64
2018-04-12T20:43:21.707Z,98702.42
2018-04-12T20:45:49.107Z,98690.67
2018-04-12T20:48:16.503Z,98691.95
2018-04-12T20:50:43.897Z,98688.24
2018-04-12T20:53:11.285Z,98689.13
2018-04-12T20:55:38.675Z,98689.86
2018-04-12T20:58:06.060Z,98689.73
2018-04-12T21:00:33.456Z,98683.47
2018-04-12T21:03:00.869Z,98684.95
2018-04-12T21:05:28.267Z,98679.42
2018-04-12T21:07:55.673Z,98681.01
2018-04-12T21:10:23.157Z,98682.97
2018-04-12T21:12:50.563Z,98677.50
2018-04-12T21:15:17.966Z,98679.98
2018-04-12T21:17:45.466Z,98676.19
2018-04-12T21:20:12.823Z,98675.02
2018-04-12T21:22:40.225Z,98672.48
2018-04-12T21:25:07.653Z,98668.23
2018-04-12T21:27:35.017Z,98671.34
2018-04-12T21:30:02.407Z,98677.97
2018-04-12T21:32:29.812Z,98685.80
2018-04-12T21:34:57.200Z,98685.22
2018-04-12T21:37:24.648Z,98681.83
2018-04-12T21:39:51.997Z,98686.47
2018-04-12T21:42:19.775Z,98677.53
2018-04-12T21:44:47.169Z,98672.83
2018-04-12T21:47:14.579Z,98675.17
2018-04-12T21:49:42.111Z,98678.58
2018-04-12T21:52:09.433Z,98679.60
2018-04-12T21:54:37.028Z,98673.73
2018-04-12T21:57:04.448Z,98679.39
2018-04-12T21:59:31.835Z,98673.16
2018-04-12T22:01:59.244Z,98672.14
2018-04-12T22:04:26.647Z,98678.48
2018-04-12T22:06:54.137Z,98683.94
2018-04-12T22:09:21.531Z,98684.56
2018-04-12T22:11:48.932Z,98683.97
2018-04-12T22:14:16.338Z,98693.52
2018-04-12T22:16:44.615Z,98689.92
2018-04-12T22:19:11.997Z,98697.84
2018-04-12T22:21:39.399Z,98695.80
2018-04-12T22:24:06.807Z,98693.98
2018-04-12T22:26:34.312Z,98692.69
2018-04-12T22:29:01.756Z,98696.21
2018-04-12T22:31:29.198Z,98700.37
2018-04-12T22:33:56.675Z,98700.42
2018-04-12T22:36:24.064Z,98698.31
2018-04-12T22:38:51.464Z,98697.88
2018-04-12T22:41:18.872Z,98703.62
2018-04-12T22:43:46.275Z,98702.29
2018-04-12T22:46:13.655Z,98706.78
2018-04-12T22:48:41.090Z,98707.04
2018-04-12T22:51:08.486Z,98711.42
2018-04-12T22:53:35.881Z,98709.19
2018-04-12T22:56:03.528Z,98713.98
2018-04-12T22:58:31.319Z,98718.30
2018-04-12T23:00:58.689Z,98713.58
2018-04-12T23:03:26.068Z,98719.24
2018-04-12T23:05:53.470Z,98725.01
2018-04-12T23:08:20.868Z,98717.23
2018-04-12T23:10:48.268Z,98724.51
2018-04-12T23:13:15.657Z,98722.35
2018-04-12T23:15:43.102Z,98728.05
2018-04-12T23:18:10.483Z,98724.12
2018-04-12T23:20:37.886Z,98724.16
2018-04-12T23:23:05.259Z,98724.27
2018-04-12T23:25:32.833Z,98731.51
2018-04-12T23:28:00.229Z,98733.63
2018-04-12T23:30:27.685Z,98733.13
2018-04-12T23:32:55.730Z,98730.70
2018-04-12T23:35:23.141Z,98734.08
2018-04-12T23:37:50.616Z,98729.84
2018-04-12T23:40:18.016Z,98725.67
2018-04-12T23:42:45.464Z,98733.83
2018-04-12T23:45:12.880Z,98733.44
2018-04-12T23:47:40.324Z,98728.24
2018-04-12T23:50:07.705Z,98727.45
2018-04-12T23:52:35.092Z,98731.34
2018-04-12T23:55:02.505Z,98735.61
2018-04-12T23:57:29.959Z,98736.02
2018-04-12T23:59:57.393Z,98738.16
